Map

Track Data

SID SEASON NUMBER BASIN SUBBASIN NAME ISO_TIME NATURE LAT LON WMO_WIND WMO_PRES WMO_AGENCY TRACK_TYPE DIST2LAND LANDFALL IFLAG USA_AGENCY USA_ATCF_ID USA_LAT USA_LON USA_RECORD USA_STATUS USA_WIND USA_PRES USA_SSHS USA_R34_NE USA_R34_SE USA_R34_SW USA_R34_NW USA_R50_NE USA_R50_SE USA_R50_SW USA_R50_NW USA_R64_NE USA_R64_SE USA_R64_SW USA_R64_NW USA_POCI USA_ROCI USA_RMW USA_EYE TOKYO_LAT TOKYO_LON TOKYO_GRADE TOKYO_WIND TOKYO_PRES TOKYO_R50_DIR TOKYO_R50_LONG TOKYO_R50_SHORT TOKYO_R30_DIR TOKYO_R30_LONG TOKYO_R30_SHORT TOKYO_LAND CMA_LAT CMA_LON CMA_CAT CMA_WIND CMA_PRES HKO_LAT HKO_LON HKO_CAT HKO_WIND HKO_PRES NEWDELHI_LAT NEWDELHI_LON NEWDELHI_GRADE NEWDELHI_WIND NEWDELHI_PRES NEWDELHI_CI NEWDELHI_DP NEWDELHI_POCI REUNION_LAT REUNION_LON REUNION_TYPE REUNION_WIND REUNION_PRES REUNION_TNUM REUNION_CI REUNION_RMW REUNION_R34_NE REUNION_R34_SE REUNION_R34_SW REUNION_R34_NW REUNION_R50_NE REUNION_R50_SE REUNION_R50_SW REUNION_R50_NW REUNION_R64_NE REUNION_R64_SE REUNION_R64_SW REUNION_R64_NW BOM_LAT BOM_LON BOM_TYPE BOM_WIND BOM_PRES BOM_TNUM BOM_CI BOM_RMW BOM_R34_NE BOM_R34_SE BOM_R34_SW BOM_R34_NW BOM_R50_NE BOM_R50_SE BOM_R50_SW BOM_R50_NW BOM_R64_NE BOM_R64_SE BOM_R64_SW BOM_R64_NW BOM_ROCI BOM_POCI BOM_EYE BOM_POS_METHOD BOM_PRES_METHOD NADI_LAT NADI_LON NADI_CAT NADI_WIND NADI_PRES WELLINGTON_LAT WELLINGTON_LON WELLINGTON_WIND WELLINGTON_PRES DS824_LAT DS824_LON DS824_STAGE DS824_WIND DS824_PRES TD9636_LAT TD9636_LON TD9636_STAGE TD9636_WIND TD9636_PRES TD9635_LAT TD9635_LON TD9635_WIND TD9635_PRES TD9635_ROCI NEUMANN_LAT NEUMANN_LON NEUMANN_CLASS NEUMANN_WIND NEUMANN_PRES MLC_LAT MLC_LON MLC_CLASS MLC_WIND MLC_PRES USA_GUST BOM_GUST BOM_GUST_PER REUNION_GUST REUNION_GUST_PER USA_SEAHGT USA_SEARAD_NE USA_SEARAD_SE USA_SEARAD_SW USA_SEARAD_NW STORM_SPEED STORM_DIR
1966303N14168 1966 102 WP MM MARIE 1966-10-29 18:00:00 TS 14.4200 167.840 1000 tokyo main 2634 2629 OOO______O_O__ jtwc_wp WP271966 14.5000 167.800 30 -1 14.3000 167.900 2 1000 0 0 0 14.3000 167.900 1 29 1000 14.5000 167.800 TC 30 14.5000 167.800 30 999 180 7 298
1966303N14168 1966 102 WP MM MARIE 1966-10-29 21:00:00 TS 14.5955 167.507 main 2631 2620 PPP______P_P__ WP271966 14.6376 167.470 32 -1 14.4974 167.562 2 999 0 0 14.5674 167.560 1 33 998 14.6376 167.470 TC 32 14.6376 167.470 32 997 210 8 297
1966303N14168 1966 102 WP MM MARIE 1966-10-30 00:00:00 TS 14.7824 167.094 998 tokyo main 2622 2604 OOOO_____OOO__ jtwc_wp WP271966 14.8000 167.100 35 0 14.7000 167.100 9 998 0 0 0 14.8000 167.100 2 38 997 14.8000 167.000 TD 25 1000 14.8000 167.100 TC 35 14.8000 167.100 2 35 14.8000 167.100 35 996 240 10 292
1966303N14168 1966 102 WP MM MARIE 1966-10-30 03:00:00 TS 14.9735 166.554 main 2606 2574 PPPP_____PPP__ WP271966 14.9998 166.652 37 0 14.9077 166.438 9 995 0 0 14.9726 166.445 2 43 994 14.8902 166.370 TD 27 997 14.9998 166.652 TC 37 15.0319 166.603 2 38 14.9998 166.652 37 994 210 12 288
1966303N14168 1966 102 WP MM MARIE 1966-10-30 06:00:00 TS 15.1509 165.927 992 tokyo main 2577 2547 OOOO_____OPO__ jtwc_wp WP271966 15.2000 166.100 40 0 15.1000 165.700 9 992 0 0 0 15.1000 165.700 3 48 992 15.0000 165.700 TD 30 995 15.2000 166.100 TC 40 15.2409 166.064 2 42 15.2000 166.100 40 992 180 13 285
1966303N14168 1966 102 WP MM MARIE 1966-10-30 09:00:00 TS 15.3039 165.268 main 2547 2512 PPPP_____PPP__ WP271966 15.3722 165.460 45 0 15.2645 165.072 9 991 0 0 15.1996 165.015 3 48 990 15.1424 164.965 TD 35 992 15.3722 165.460 TC 45 15.4045 165.444 2 46 15.3722 165.460 45 990 150 14 282
1966303N14168 1966 102 WP MM MARIE 1966-10-30 12:00:00 TS 15.4286 164.529 990 tokyo main 2506 2469 OOOO_____OOO__ jtwc_wp WP271966 15.5000 164.700 50 0 15.4000 164.400 9 990 0 0 0 15.3000 164.300 3 48 989 15.3000 164.200 TS 40 990 15.5000 164.700 TC 50 15.5000 164.700 2 50 15.5000 164.700 50 988 120 15 277
1966303N14168 1966 102 WP MM MARIE 1966-10-30 15:00:00 TS 15.4953 163.688 main 2469 2432 PPPP_____PPP__ WP271966 15.5351 163.822 57 0 15.4776 163.572 9 988 0 0 15.4199 163.515 3 53 987 15.4348 163.442 TS 45 990 15.5351 163.822 TC 57 15.5298 163.821 2 57 15.5351 163.822 57 986 120 17 276
1966303N14168 1966 102 WP MM MARIE 1966-10-30 18:00:00 TS 15.6000 162.814 986 tokyo main 2426 2402 OOOO_____OOO__ jtwc_wp WP271966 15.6000 162.900 65 1 15.6000 162.700 9 986 0 0 0 15.6000 162.700 3 58 985 15.6000 162.700 STS 50 990 15.6000 162.900 TC 65 15.6000 162.900 3 65 15.6000 162.900 65 985 120 17 281
1966303N14168 1966 102 WP MM MARIE 1966-10-30 21:00:00 TS 15.8145 161.979 main 2402 2391 PPPP_____PPP__ WP271966 15.7898 162.027 70 1 15.8699 161.870 9 984 0 0 15.8774 161.878 3 63 983 15.7896 162.007 STS 55 987 15.7898 162.027 TC 70 15.7953 162.017 3 70 15.7898 162.027 70 983 120 17 289
1966303N14168 1966 102 WP MM MARIE 1966-10-31 00:00:00 TS 16.1286 161.186 982 tokyo main 2391 2385 OOOO_____OOO__ jtwc_wp WP271966 16.1000 161.200 75 1 16.2000 161.100 9 982 0 0 0 16.2000 161.100 4 68 982 16.1000 161.300 STS 60 985 16.1000 161.200 TC 75 16.1000 161.200 4 75 16.1000 161.200 75 982 120 17 295
1966303N14168 1966 102 WP MM MARIE 1966-10-31 03:00:00 TS 16.5177 160.419 main 2390 2390 PPPP_____PPP__ WP271966 16.5125 160.390 75 1 16.4848 160.405 9 981 0 0 16.4848 160.405 4 68 981 16.6279 160.463 STS 62 982 16.5125 160.390 TC 75 16.4891 160.492 4 75 16.5125 160.390 75 980 120 16 301
1966303N14168 1966 102 WP MM MARIE 1966-10-31 06:00:00 TS 16.9662 159.754 980 tokyo main 2413 2409 OOOO_____OPO__ jtwc_wp WP271966 17.0000 159.700 75 1 16.8000 159.800 9 980 0 0 0 16.8000 159.800 4 68 980 17.2000 159.700 T 65 980 17.0000 159.700 TC 75 16.9633 159.877 4 75 17.0000 159.700 75 979 120 14 309
1966303N14168 1966 102 WP MM MARIE 1966-10-31 09:00:00 TS 17.4233 159.242 main 2428 2428 PPPP_____PPP__ WP271966 17.5070 159.205 75 1 17.1697 159.277 9 979 0 0 17.1697 159.277 4 68 978 17.6219 159.204 T 65 980 17.5070 159.205 TC 75 17.4809 159.324 4 75 17.5070 159.205 75 978 120 13 315
1966303N14168 1966 102 WP MM MARIE 1966-10-31 12:00:00 TS 17.8857 158.800 978 tokyo main 2464 2464 OOOO_____OOO__ jtwc_wp WP271966 18.0000 158.800 75 1 17.6000 158.800 9 978 0 0 0 17.6000 158.800 4 68 977 18.0000 158.800 T 65 980 18.0000 158.800 TC 75 18.0000 158.800 4 75 18.0000 158.800 75 977 120 12 316
1966303N14168 1966 102 WP MM MARIE 1966-10-31 15:00:00 TS 18.3141 158.344 main 2488 2488 PPPP_____PPP__ WP271966 18.3997 158.372 75 1 18.0773 158.315 9 977 0 0 18.0773 158.315 4 68 976 18.3695 158.352 T 65 977 18.3997 158.372 TC 75 18.4753 158.313 4 77 18.3997 158.372 75 976 150 13 314
1966303N14168 1966 102 WP MM MARIE 1966-10-31 18:00:00 TS 18.7631 157.848 976 tokyo main 2505 2429 OOOO_____OPO__ jtwc_wp WP271966 18.8000 157.900 75 1 18.6000 157.800 9 976 0 0 0 18.6000 157.800 4 68 975 18.8000 157.800 T 65 975 18.8000 157.900 TC 75 18.9416 157.837 4 80 18.8000 157.900 75 975 180 14 314
1966303N14168 1966 102 WP MM MARIE 1966-10-31 21:00:00 TS 19.2859 157.270 main 2429 2339 PPPP_____PPP__ WP271966 19.2921 157.360 80 1 19.1648 157.230 9 974 0 0 19.1648 157.230 4 72 972 19.4079 157.031 T 70 972 19.2921 157.360 TC 80 19.3873 157.319 4 82 19.2921 157.360 80 974 210 16 311
1966303N14168 1966 102 WP MM MARIE 1966-11-01 00:00:00 TS 19.8000 156.600 972 tokyo main 2339 2258 OOOO_____OOO__ jtwc_wp WP271966 19.8000 156.700 85 2 19.7000 156.600 9 972 0 0 0 19.7000 156.600 4 77 970 20.0000 156.200 T 75 970 19.8000 156.700 TC 85 19.8000 156.700 4 85 19.8000 156.700 85 974 240 16 306
1966303N14168 1966 102 WP MM MARIE 1966-11-01 03:00:00 TS 20.2436 155.848 main 2251 2171 PPPP_____PPP__ WP271966 20.2948 155.903 87 2 20.1296 155.937 9 970 0 0 20.1296 155.937 4 77 968 20.4016 155.514 T 75 970 20.2948 155.903 TC 87 20.1598 155.843 4 86 20.2948 155.903 87 974 240 17 299
1966303N14168 1966 102 WP MM MARIE 1966-11-01 06:00:00 TS 20.6120 155.013 968 tokyo main 2165 2081 OOOO_____OPO__ jtwc_wp WP271966 20.7000 155.000 90 2 20.5000 155.200 9 968 0 0 0 20.5000 155.200 4 77 966 20.7000 154.800 T 75 970 20.7000 155.000 TC 90 20.4843 154.893 4 87 20.7000 155.000 90 974 240 18 292
1966303N14168 1966 102 WP MM MARIE 1966-11-01 09:00:00 TS 20.8903 154.096 main 2081 2008 PPPP_____PPP__ WP271966 20.9152 154.034 90 2 20.8726 154.357 9 967 0 0 20.8726 154.357 4 77 965 20.9503 153.907 T 77 967 20.9152 154.034 TC 90 20.7911 153.946 4 88 20.9152 154.034 90 972 240 18 287
1966303N14168 1966 102 WP MM MARIE 1966-11-01 12:00:00 TS 21.1429 153.200 966 tokyo main 2008 1933 OOOO_____OOO__ jtwc_wp WP271966 21.1000 153.100 90 2 21.2000 153.500 9 966 0 0 0 21.2000 153.500 4 77 964 21.2000 153.000 T 80 965 21.1000 153.100 TC 90 21.1000 153.100 4 90 21.1000 153.100 90 970 240 17 289
1966303N14168 1966 102 WP MM MARIE 1966-11-01 15:00:00 TS 21.4447 152.386 main 1933 1861 PPPP_____PPP__ WP271966 21.4275 152.245 95 2 21.4349 152.697 9 963 0 0 21.4349 152.697 4 77 962 21.5275 152.168 T 85 960 21.4275 152.245 TC 95 21.4330 152.404 4 92 21.4275 152.245 95 967 300 15 295
1966303N14168 1966 102 WP MM MARIE 1966-11-01 18:00:00 TS 21.7822 151.733 960 tokyo main 1855 1804 OOOO_____OPO__ jtwc_wp WP271966 21.8000 151.600 100 3 21.7000 152.000 9 960 0 0 0 21.7000 152.000 4 77 961 21.9000 151.500 ST 90 955 21.8000 151.600 TC 100 21.7757 151.830 4 95 21.8000 151.600 100 964 360 12 305
1966303N14168 1966 102 WP MM MARIE 1966-11-01 21:00:00 TS 22.1576 151.285 main 1795 1750 PPPP_____PPP__ WP271966 22.1419 151.252 100 3 22.1198 151.403 9 957 0 0 22.1198 151.403 4 82 957 22.3071 151.045 ST 90 955 22.1419 151.252 TC 100 22.1306 151.392 4 97 22.1419 151.252 100 959 420 10 320
1966303N14168 1966 102 WP MM MARIE 1966-11-02 00:00:00 TS 22.5571 151.029 954 tokyo main 1741 1707 OOOO_____OOO__ jtwc_wp WP271966 22.5000 151.100 100 3 22.6000 151.000 9 954 0 0 0 22.6000 151.000 5 87 954 22.7000 150.800 ST 90 955 22.5000 151.100 TC 100 22.5000 151.100 4 100 22.5000 151.100 100 955 480 9 334
1966303N14168 1966 102 WP MM MARIE 1966-11-02 03:00:00 TS 22.9440 150.866 main 1707 1664 PPPP_____PPP__ WP271966 22.8924 150.948 100 3 23.0496 150.869 9 951 0 0 23.0422 150.810 5 87 952 22.9998 150.675 ST 90 955 22.8924 150.948 TC 100 22.8393 150.868 4 100 22.8924 150.948 100 952 510 8 347
1966303N14168 1966 102 WP MM MARIE 1966-11-02 06:00:00 TS 23.3429 150.827 949 tokyo main 1664 1628 OOOO_____OPO__ jtwc_wp WP271966 23.3000 150.900 100 3 23.5000 150.800 9 949 0 0 0 23.5000 150.800 5 87 950 23.3000 150.700 ST 90 955 23.3000 150.900 TC 100 23.2002 150.788 4 100 23.3000 150.900 100 949 540 8 356
1966303N14168 1966 102 WP MM MARIE 1966-11-02 09:00:00 TS 23.7368 150.805 main 1628 1589 PPPP_____PPP__ WP271966 23.6699 150.933 100 3 23.9198 150.367 9 949 0 0 23.9773 150.825 5 87 950 23.6399 150.783 ST 90 952 23.6699 150.933 TC 100 23.6111 150.863 4 100 23.6699 150.933 100 949 570 9 7
1966303N14168 1966 102 WP MM MARIE 1966-11-02 12:00:00 TS 24.2000 150.943 949 tokyo main 1589 1561 OOOO_____OOO__ jtwc_wp WP271966 24.1000 151.100 100 3 24.4000 150.200 9 949 0 0 0 24.5000 151.000 5 87 951 24.1000 151.000 ST 90 950 24.1000 151.100 TC 100 24.1000 151.100 4 100 24.1000 151.100 100 950 600 11 22
1966303N14168 1966 102 WP MM MARIE 1966-11-02 15:00:00 TS 24.7973 151.277 main 1561 1537 PPPP_____PPP__ WP271966 24.6470 151.354 100 3 25.0589 150.862 9 949 0 0 25.1149 151.325 5 87 951 24.7624 151.340 ST 90 950 24.6470 151.354 TC 100 24.7038 151.349 4 100 24.6470 151.354 100 950 570 15 32
1966303N14168 1966 102 WP MM MARIE 1966-11-02 18:00:00 TS 25.4546 151.796 949 tokyo main 1535 1521 OOOO_____OPO__ jtwc_wp WP271966 25.3000 151.800 100 3 25.7000 151.800 9 949 0 0 0 25.7000 151.800 5 87 952 25.5000 151.800 ST 90 950 25.3000 151.800 TC 100 25.3822 151.771 4 100 25.3000 151.800 100 951 540 16 37
1966303N14168 1966 102 WP MM MARIE 1966-11-02 21:00:00 TS 26.0876 152.337 main 1521 1520 PPPP_____PPP__ WP271966 26.0484 152.393 100 3 26.1047 152.314 9 948 0 0 26.0979 152.253 5 87 951 26.1703 152.202 ST 90 950 26.0484 152.393 TC 100 26.0948 152.408 4 100 26.0484 152.393 100 950 510 18 44
1966303N14168 1966 102 WP MM MARIE 1966-11-03 00:00:00 TS 26.7143 153.157 948 tokyo main 1537 1537 OOOO_____OOO__ jtwc_wp WP271966 26.8000 153.300 100 3 26.5000 153.000 9 948 0 0 0 26.5000 153.000 5 87 950 26.8000 152.900 ST 90 950 26.8000 153.300 TC 100 26.8000 153.300 4 100 26.8000 153.300 100 950 480 22 57
1966303N14168 1966 102 WP MM MARIE 1966-11-03 03:00:00 TS 27.2915 154.403 main 1581 1581 PPPP_____PPP__ WP271966 27.4231 154.588 100 3 27.0556 154.250 9 948 0 0 27.0398 154.229 5 92 948 27.3432 154.144 ST 90 950 27.4231 154.588 TC 100 27.3326 154.430 4 95 27.4231 154.588 100 948 480 27 65
1966303N14168 1966 102 WP MM MARIE 1966-11-03 06:00:00 TS 27.8795 155.916 948 tokyo main 1658 1658 OOOO_____OPO__ jtwc_wp WP271966 28.0000 156.100 100 3 27.7000 155.800 9 948 0 0 0 27.7000 155.800 5 97 947 27.9000 155.700 ST 90 950 28.0000 156.100 TC 100 27.8565 155.814 4 90 28.0000 156.100 100 947 480 29 66
1966303N14168 1966 102 WP MM MARIE 1966-11-03 09:00:00 TS 28.4819 157.448 main 1743 1743 PPPP_____PPP__ WP271966 28.5454 157.560 90 2 28.3304 157.337 9 948 0 0 28.4392 157.485 5 92 949 28.5157 157.245 ST 80 952 28.5454 157.560 TC 90 28.4515 157.390 4 85 28.5454 157.560 90 948 480 31 64
1966303N14168 1966 102 WP MM MARIE 1966-11-03 12:00:00 TS 29.2143 159.086 948 tokyo main 1848 1848 OOOO_____OOO__ jtwc_wp WP271966 29.2000 159.100 80 1 29.1000 159.000 9 948 0 0 0 29.3000 159.300 5 87 951 29.3000 158.900 T 70 955 29.2000 159.100 TC 80 29.2000 159.100 4 80 29.2000 159.100 80 950 480 33 61
1966303N14168 1966 102 WP MM MARIE 1966-11-03 15:00:00 TS 30.1192 160.790 main 1952 1945 PPPP_____PPP__ WP271966 30.0340 160.709 80 1 30.0423 160.773 9 949 0 0 30.2148 161.119 5 82 955 30.3136 160.607 T 70 955 30.0340 160.709 TC 80 30.1618 160.901 4 80 30.0340 160.709 80 954 450 37 57
1966303N14168 1966 102 WP MM MARIE 1966-11-03 18:00:00 TS 31.2194 162.647 950 tokyo main 1950 1941 OOOO_____OPO__ jtwc_wp WP271966 31.1000 162.500 80 1 31.2000 162.700 9 950 0 0 0 31.3000 163.000 4 77 959 31.5000 162.500 T 70 955 31.1000 162.500 TC 80 31.2953 162.788 4 80 31.1000 162.500 80 959 420 41 55
1966303N14168 1966 102 WP MM MARIE 1966-11-03 21:00:00 TS 32.4907 164.736 main 1939 1935 PPPP_____PPP__ WP271966 32.3562 164.664 80 1 32.5531 164.792 9 955 0 0 32.5939 164.944 4 77 963 32.7500 164.655 T 67 957 32.3562 164.664 TC 80 32.5316 164.758 4 80 32.3967 164.552 80 963 360 45 53
1966303N14168 1966 102 WP MM MARIE 1966-11-04 00:00:00 TS 33.8947 166.895 960 tokyo main 1942 1938 OOOO_____OOO__ jtwc_wp WP271966 33.8000 166.800 80 1 34.0000 167.000 9 960 0 0 0 34.0000 167.000 4 77 968 34.0000 167.000 T 65 960 33.8000 166.800 TC 80 33.8000 166.800 4 80 33.8000 166.800 80 968 300 44 50
1966303N14168 1966 102 WP MM MARIE 1966-11-04 03:00:00 TS 35.3249 168.800 main 1950 1894 PPP______P____ WP271966 35.3658 168.363 70 1 35.2871 169.249 9 965 0 0 35.2809 169.225 4 72 972 T 35.3658 168.363 TC 70 4 43 47
1966303N14168 1966 102 WP MM MARIE 1966-11-04 06:00:00 MX 36.8500 170.750 970 tokyo main 1894 1871 OOO______O____ jtwc_wp WP271966 37.0000 170.000 60 0 36.7000 171.500 6 970 0 0 0 36.7000 171.500 9 68 977 37.0000 170.000 TC 60 4 46 47
1966303N14168 1966 102 WP MM MARIE 1966-11-04 09:00:00 MX 38.4704 173.080 main 1872 1842 PPP______P____ WP271966 38.5177 172.369 52 0 38.4232 173.790 6 975 0 0 38.4232 173.790 9 63 978 38.5177 172.369 TC 52 4 49 48
1966303N14168 1966 102 WP MM MARIE 1966-11-04 12:00:00 MX 40.1400 175.467 980 tokyo main 1845 1617 OOO______O____ jtwc_wp WP271966 40.0000 175.000 45 0 40.3000 176.000 6 980 0 0 0 40.3000 176.000 9 58 980 40.0000 175.000 TC 45 47 49
1966303N14168 1966 102 WP MM MARIE 1966-11-04 15:00:00 MX 41.5952 177.744 main 1603 1346 PPP______P____ WP271966 41.1611 177.555 40 0 42.1778 177.978 6 983 0 0 42.1667 178.031 9 53 983 41.1611 177.555 TC 40 47 46
1966303N14168 1966 102 EP CP MARIE 1966-11-04 18:00:00 MX 43.4000 180.000 986 tokyo main 1332 1005 OOO______O____ jtwc_wp WP271966 43.0000 180.000 35 0 44.0000 180.000 6 986 0 0 0 44.0000 180.000 9 48 986 43.0000 180.000 TC 35 56 37
1966303N14168 1966 102 EP CP MARIE 1966-11-04 21:00:00 MX 46.0823 182.378 main 978 599 PP_______P____ WP271966 46.3094 -177.612 32 -1 45.6282 -177.643 6 986 0 0 9 46.3094 -177.612 TC 32 69 30
1966303N14168 1966 102 EP CP MARIE 1966-11-05 00:00:00 MX 49.3667 185.000 main 574 OO_______O____ jtwc_wp WP271966 50.5000 -175.000 30 -1 47.1000 185.000 6 986 0 0 0 50.5000 185.000 TC 30 74 27

Digital Typhoon Data and Search

About IBTrACS Database

This database is a web-friendly format of International Best Track Archive for Climate Stewardship (IBTrACS), a global best track data archive curated by NOAA dating back to 1842.

Updated: 2021-12-03